KCRE/CRE METAR and TAF weather

Enter ICAO airport designator
Station Type Date Time Source
KCRE METAR 2020/01/18 21:53 UTC NOAA

KCRE 182153Z 14003KT 10SM FEW043 14/12 A3022 RMK AO1 SLP235 T01440117


Station Type Date Time Source
KCRE Decoded METAR 2020/01/18 21:53 UTC NOAA

N. MYRTLE BCH.GRAND STRAND, SC, United States (KCRE) 33-49N 078-43W 10M
Jan 18, 2020 - 04:53 PM EST / 2020.01.18 2153 UTC
Wind: from the SE (140 degrees) at 3 MPH (3 KT):0
Visibility: 10 mile(s):0
Sky conditions: mostly clear
Temperature: 57.9 F (14.4 C)
Dew Point: 53.1 F (11.7 C)
Relative Humidity: 83%
Pressure (altimeter): 30.22 in. Hg (1023 hPa)
ob: KCRE 182153Z 14003KT 10SM FEW043 14/12 A3022 RMK AO1 SLP235 T01440117
cycle: 22

Station Type Date Time Source
KCRE TAF 2020/01/18 18:22 UTC NOAA

TAF KCRE 181720Z 1818/1918 10007KT P6SM BKN030
FM182100 18008KT P6SM BKN030
FM182300 20010G20KT P6SM BKN030
FM190400 22013G25KT P6SM OVC045 WS020/21045KT
FM190900 24011G19KT 5SM -SHRA BKN025 WS020/23045KT
FM191400 25013G20KT P6SM BKN010

Example: see airport list